Time;durP1;ratioP1;P1;durP2;ratioP2;P2;SDS_P1;SDS_P2;PMS_P1;PMS_P2;Temp;Humidity;BMP_temperature;BMP_pressure;BME280_temperature;BME280_humidity;BME280_pressure;Samples;Min_cycle;Max_cycle;Signal;HPM_P1;HPM_P2
2023/01/13 00:02:00;;;;;;;4.30;2.00;;;;;;;10.10;100.00;99581.84;5108938;28;20091;-77
2023/01/13 00:04:25;;;;;;;4.35;1.75;;;;;;;10.12;100.00;99574.41;5108868;28;20539;-73
2023/01/13 00:06:50;;;;;;;1.73;1.50;;;;;;;10.24;100.00;99581.06;5108788;28;20566;-73
2023/01/13 00:09:16;;;;;;;2.28;1.33;;;;;;;10.15;100.00;99590.25;5109157;28;20034;-73
2023/01/13 00:11:41;;;;;;;3.00;1.70;;;;;;;10.17;100.00;99593.59;5108993;28;20032;-73
2023/01/13 00:14:07;;;;;;;2.38;1.70;;;;;;;10.24;100.00;99600.00;5113276;27;20015;-76
2023/01/13 00:16:32;;;;;;;2.80;1.30;;;;;;;10.25;100.00;99591.69;5108951;28;20030;-73
2023/01/13 00:18:57;;;;;;;2.55;1.35;;;;;;;10.13;100.00;99597.72;5108462;28;20020;-73
2023/01/13 00:21:23;;;;;;;5.63;2.25;;;;;;;10.20;100.00;99593.22;5110137;28;20031;-78
2023/01/13 00:23:52;;;;;;;4.22;1.55;;;;;;;10.11;100.00;99599.78;5118824;28;20019;-75
2023/01/13 00:26:24;;;;;;;3.95;1.27;;;;;;;10.05;100.00;99607.59;5110498;28;20089;-73
2023/01/13 00:28:50;;;;;;;4.53;1.65;;;;;;;9.94;100.00;99599.09;5108764;28;20081;-72
2023/01/13 00:31:19;;;;;;;10.98;1.50;;;;;;;10.01;100.00;99608.97;5110080;28;20038;-73
2023/01/13 00:33:44;;;;;;;3.63;1.45;;;;;;;9.89;100.00;99601.50;5109491;28;20028;-74
2023/01/13 00:36:12;;;;;;;3.80;1.52;;;;;;;9.76;100.00;99623.78;5109292;28;20476;-75
2023/01/13 00:38:38;;;;;;;13.13;1.50;;;;;;;9.74;100.00;99606.91;5108261;28;20032;-74
2023/01/13 00:41:08;;;;;;;6.30;1.17;;;;;;;9.58;100.00;99642.16;5111472;28;20030;-74
2023/01/13 00:43:35;;;;;;;4.68;1.40;;;;;;;9.58;100.00;99620.56;5105869;28;20106;-74
2023/01/13 00:46:01;;;;;;;6.55;1.50;;;;;;;9.55;100.00;99610.13;5113620;28;20051;-74
2023/01/13 00:48:28;;;;;;;6.22;1.85;;;;;;;9.44;100.00;99620.34;5114702;28;20019;-74
2023/01/13 00:50:55;;;;;;;4.38;1.45;;;;;;;9.36;100.00;99617.72;5113810;28;20024;-74
2023/01/13 00:53:21;;;;;;;8.95;2.03;;;;;;;9.22;100.00;99618.50;5112494;28;20726;-74
2023/01/13 00:55:46;;;;;;;12.40;1.80;;;;;;;9.20;100.00;99613.28;5114386;28;20024;-74
2023/01/13 00:58:12;;;;;;;14.48;1.70;;;;;;;9.12;100.00;99604.38;5113191;28;20027;-74
2023/01/13 01:00:37;;;;;;;18.80;2.35;;;;;;;9.14;100.00;99607.75;5113315;28;20023;-74
2023/01/13 01:03:07;;;;;;;13.38;1.77;;;;;;;9.06;100.00;99595.13;5112103;28;20106;-75
2023/01/13 01:05:32;;;;;;;8.07;1.60;;;;;;;9.04;100.00;99596.34;5112842;28;20024;-74
2023/01/13 01:07:57;;;;;;;14.35;1.98;;;;;;;9.04;100.00;99612.56;5112093;28;20129;-74
2023/01/13 01:10:23;;;;;;;12.52;2.35;;;;;;;8.98;100.00;99598.75;5113215;28;20092;-74
2023/01/13 01:12:49;;;;;;;9.75;1.52;;;;;;;8.88;100.00;99598.16;5112570;28;20036;-73
2023/01/13 01:15:15;;;;;;;12.85;2.22;;;;;;;9.04;100.00;99612.56;5112442;28;20054;-74
2023/01/13 01:17:41;;;;;;;6.20;1.30;;;;;;;8.88;100.00;99603.56;5112263;28;20019;-73
2023/01/13 01:20:07;;;;;;;10.40;1.70;;;;;;;8.86;100.00;99615.53;5112686;28;20024;-73
2023/01/13 01:22:32;;;;;;;10.20;1.70;;;;;;;8.85;100.00;99603.88;5119253;27;20038;-73
2023/01/13 01:24:58;;;;;;;17.80;2.28;;;;;;;8.85;100.00;99611.97;5125505;27;20024;-73
2023/01/13 01:27:23;;;;;;;9.95;1.90;;;;;;;8.93;100.00;99617.34;5111788;28;20028;-73
2023/01/13 01:29:49;;;;;;;7.55;2.20;;;;;;;8.94;100.00;99635.22;5112041;27;20027;-76
2023/01/13 01:32:14;;;;;;;11.13;2.33;;;;;;;8.93;100.00;99625.47;5111608;28;20065;-74
2023/01/13 01:34:40;;;;;;;13.00;2.10;;;;;;;8.85;100.00;99620.09;5112356;28;20032;-74
2023/01/13 01:37:05;;;;;;;14.98;2.38;;;;;;;8.88;100.00;99614.34;5110671;28;20476;-73
2023/01/13 01:39:31;;;;;;;14.27;2.38;;;;;;;8.86;100.00;99610.97;5112144;28;20031;-73
2023/01/13 01:44:40;;;;;;;21.25;2.78;;;;;;;8.94;100.00;99616.34;5113176;28;20114;-76
2023/01/13 01:47:06;;;;;;;16.65;3.70;;;;;;;8.93;100.00;99617.34;5111424;28;20051;-74
2023/01/13 01:49:34;;;;;;;14.95;2.28;;;;;;;8.97;100.00;99628.63;5111157;28;20028;-74
2023/01/13 01:52:07;;;;;;;27.08;3.97;;;;;;;9.00;100.00;99627.41;5111293;28;20449;-73
2023/01/13 01:54:33;;;;;;;28.10;4.13;;;;;;;9.08;100.00;99630.09;5111677;28;20518;-73
2023/01/13 01:56:58;;;;;;;14.63;2.45;;;;;;;9.12;100.00;99620.59;5111556;28;20019;-73
2023/01/13 01:59:26;;;;;;;17.10;3.70;;;;;;;9.10;100.00;99622.63;5111466;28;20028;-74
2023/01/13 02:01:51;;;;;;;11.40;2.88;;;;;;;9.15;100.00;99626.47;5111167;28;20055;-75
2023/01/13 02:04:22;;;;;;;17.23;2.55;;;;;;;9.10;100.00;99633.44;5109660;28;20121;-74
2023/01/13 02:06:49;;;;;;;31.38;3.47;;;;;;;8.96;100.00;99643.97;5111439;28;20061;-73
2023/01/13 02:09:16;;;;;;;16.85;3.45;;;;;;;9.04;100.00;99634.16;5111198;28;20023;-74
2023/01/13 02:14:27;;;;;;;18.35;3.25;;;;;;;8.91;100.00;99635.56;5111985;28;20051;-73
2023/01/13 02:17:22;;;;;;;21.50;2.67;;;;;;;8.90;100.00;99623.09;5111439;28;20392;-73
2023/01/13 02:20:32;;;;;;;21.42;2.90;;;;;;;8.92;100.00;99631.84;5095660;28;20490;-74
2023/01/13 02:26:25;;;;;;;17.58;3.45;;;;;;;8.89;100.00;99642.19;5108917;28;20032;-74
2023/01/13 02:32:32;;;;;;;20.47;3.57;;;;;;;8.94;100.00;99650.59;5084619;28;20037;-73
2023/01/13 02:35:07;;;;;;;27.50;4.47;;;;;;;9.06;100.00;99646.44;5111238;28;20273;-77
2023/01/13 02:37:38;;;;;;;22.13;3.78;;;;;;;8.98;100.00;99636.53;5110008;28;20024;-76
2023/01/13 02:40:19;;;;;;;27.70;5.20;;;;;;;8.95;100.00;99636.91;5112346;28;20043;-71
2023/01/13 02:45:50;;;;;;;27.67;4.05;;;;;;;8.95;100.00;99631.50;5103326;28;20023;-74
2023/01/13 02:48:19;;;;;;;28.27;5.30;;;;;;;8.88;100.00;99630.53;5110009;28;20415;-74
2023/01/13 02:50:57;;;;;;;30.27;4.72;;;;;;;8.88;100.00;99652.13;5110836;28;20020;-74
2023/01/13 02:53:38;;;;;;;30.30;4.25;;;;;;;8.83;100.00;99627.53;5116026;27;20015;-74
2023/01/13 02:56:05;;;;;;;22.55;4.68;;;;;;;8.95;100.00;99631.50;5123414;27;20020;-75
2023/01/13 02:58:34;;;;;;;29.92;4.13;;;;;;;8.83;100.00;99632.94;5110045;28;20023;-74
2023/01/13 03:00:59;;;;;;;20.80;3.95;;;;;;;8.77;100.00;99633.63;5110544;28;20037;-74
2023/01/13 03:03:25;;;;;;;29.30;4.88;;;;;;;8.74;100.00;99638.53;5109781;28;20011;-76
2023/01/13 03:05:55;;;;;;;22.45;4.68;;;;;;;8.89;100.00;99643.00;5110098;28;20023;-75
2023/01/13 03:08:42;;;;;;;24.15;3.97;;;;;;;8.80;100.00;99625.19;5109576;28;20090;-74
2023/01/13 03:11:10;;;;;;;22.52;3.60;;;;;;;8.80;100.00;99638.69;5110148;28;20050;-74
2023/01/13 03:14:05;;;;;;;26.95;3.75;;;;;;;8.86;100.00;99643.34;5108493;28;20034;-76
2023/01/13 03:16:33;;;;;;;20.60;3.83;;;;;;;8.64;100.00;99638.75;5109429;28;20030;-76
2023/01/13 03:19:14;;;;;;;33.50;4.15;;;;;;;8.54;100.00;99654.31;5109884;28;20034;-75
2023/01/13 03:21:55;;;;;;;34.13;4.30;;;;;;;8.57;100.00;99648.56;5109359;28;20028;-75
2023/01/13 03:24:20;;;;;;;20.35;4.70;;;;;;;8.61;100.00;99655.31;5116118;27;20027;-75
2023/01/13 03:27:34;;;;;;;24.20;3.97;;;;;;;8.63;100.00;99658.66;5117289;27;20024;-75
2023/01/13 03:30:06;;;;;;;23.23;3.80;;;;;;;8.69;100.00;99653.41;5110775;27;20027;-75
2023/01/13 03:32:33;;;;;;;30.02;5.40;;;;;;;8.58;100.00;99666.44;5111289;28;20019;-73
2023/01/13 03:35:06;;;;;;;41.55;4.25;;;;;;;8.52;100.00;99683.31;5110601;28;20019;-72
2023/01/13 03:37:39;;;;;;;28.40;4.45;;;;;;;8.58;100.00;99671.84;5109280;28;20376;-73
2023/01/13 03:40:19;;;;;;;34.92;4.47;;;;;;;8.64;100.00;99681.94;5109451;28;20062;-73
2023/01/13 03:45:35;;;;;;;38.85;6.00;;;;;;;8.38;100.00;99683.03;5119805;27;20023;-73
2023/01/13 03:48:07;;;;;;;36.80;6.95;;;;;;;8.37;100.00;99681.34;5109365;28;20012;-73
2023/01/13 03:50:39;;;;;;;41.90;6.47;;;;;;;8.39;100.00;99678.47;5109289;28;20027;-74
2023/01/13 03:53:21;;;;;;;46.95;6.72;;;;;;;8.39;100.00;99700.06;5109307;28;20076;-73
2023/01/13 03:55:51;;;;;;;35.75;6.13;;;;;;;8.41;100.00;99709.66;5110020;27;20068;-73
2023/01/13 03:58:22;;;;;;;44.15;6.00;;;;;;;8.37;100.00;99680.50;5108902;28;20027;-73
2023/01/13 04:00:55;;;;;;;58.33;8.13;;;;;;;8.34;100.00;99670.88;5109255;28;20024;-73
2023/01/13 04:03:46;;;;;;;47.88;6.68;;;;;;;8.32;100.00;99678.28;5109347;28;20023;-71
2023/01/13 04:06:17;;;;;;;35.97;5.68;;;;;;;8.34;100.00;99660.06;5109121;28;20015;-72
2023/01/13 04:08:50;;;;;;;44.28;6.30;;;;;;;8.40;100.00;99656.72;5100888;28;20059;-73
2023/01/13 04:11:37;;;;;;;45.95;7.22;;;;;;;8.12;100.00;99660.81;5109068;28;20084;-72
2023/01/13 04:14:05;;;;;;;48.08;6.35;;;;;;;8.31;100.00;99665.00;5107865;27;20019;-72
2023/01/13 04:16:31;;;;;;;60.95;6.65;;;;;;;8.22;100.00;99661.50;5109856;28;20024;-72
2023/01/13 04:18:56;;;;;;;41.60;6.40;;;;;;;8.22;100.00;99644.47;5108490;28;20103;-72
2023/01/13 04:21:22;;;;;;;45.95;5.53;;;;;;;8.16;100.00;99635.22;5108991;28;20040;-75
2023/01/13 04:23:50;;;;;;;46.40;5.95;;;;;;;8.18;100.00;99643.97;5117435;28;20067;-73
2023/01/13 04:26:16;;;;;;;43.47;5.90;;;;;;;8.07;100.00;99644.31;5117348;28;20072;-73
2023/01/13 04:28:41;;;;;;;46.50;5.90;;;;;;;8.05;100.00;99643.66;5108702;28;20019;-74
2023/01/13 04:31:07;;;;;;;37.58;6.05;;;;;;;8.16;100.00;99641.44;5108650;28;20525;-73
2023/01/13 04:33:32;;;;;;;40.08;6.38;;;;;;;8.05;100.00;99638.28;5108032;28;20031;-73
2023/01/13 04:35:57;;;;;;;41.65;5.53;;;;;;;8.08;100.00;99643.31;5108949;28;20030;-74
2023/01/13 04:38:23;;;;;;;55.85;7.25;;;;;;;7.97;100.00;99646.38;5108738;28;20022;-73
2023/01/13 04:40:48;;;;;;;56.72;6.20;;;;;;;8.09;100.00;99653.09;5108825;28;20050;-74
2023/01/13 04:43:14;;;;;;;34.58;6.10;;;;;;;7.96;100.00;99658.19;5108712;28;20016;-74
2023/01/13 04:45:41;;;;;;;45.13;6.60;;;;;;;7.85;100.00;99670.97;5108333;28;20015;-75
2023/01/13 04:48:06;;;;;;;36.15;5.70;;;;;;;7.86;100.00;99667.28;5108390;28;20015;-75
2023/01/13 04:50:32;;;;;;;33.97;6.28;;;;;;;7.80;100.00;99662.56;5108293;28;20032;-74
2023/01/13 04:52:59;;;;;;;45.83;7.50;;;;;;;7.76;100.00;99655.84;5119357;28;20026;-76
2023/01/13 04:55:24;;;;;;;48.22;6.18;;;;;;;7.80;100.00;99657.16;5128404;28;20043;-75
2023/01/13 04:57:50;;;;;;;42.15;6.03;;;;;;;7.72;100.00;99659.88;5108221;28;20078;-75
2023/01/13 05:00:18;;;;;;;51.78;6.47;;;;;;;7.66;100.00;99655.16;5108762;28;20088;-75
2023/01/13 05:02:43;;;;;;;45.75;6.15;;;;;;;7.63;100.00;99652.81;5108125;28;20020;-75
2023/01/13 05:05:09;;;;;;;43.88;5.35;;;;;;;7.79;100.00;99665.44;5105669;28;20024;-75
2023/01/13 05:07:34;;;;;;;50.45;8.23;;;;;;;7.72;100.00;99657.19;5108304;28;20034;-75
2023/01/13 05:10:00;;;;;;;52.05;6.78;;;;;;;7.78;100.00;99658.38;5108553;28;20050;-75
2023/01/13 05:18:07;;;;;;;39.17;5.25;;;;;;;7.67;100.00;99651.47;5109854;27;20023;-75
2023/01/13 05:20:32;;;;;;;42.85;6.55;;;;;;;7.53;100.00;99657.53;5108268;28;20019;-75
2023/01/13 05:25:42;;;;;;;47.95;6.75;;;;;;;7.67;100.00;99645.22;5109897;28;20031;-75
2023/01/13 05:28:31;;;;;;;28.65;5.88;;;;;;;7.72;100.00;99638.34;5110307;28;20046;-75
2023/01/13 05:30:56;;;;;;;46.08;6.32;;;;;;;7.72;100.00;99637.50;5112141;28;20016;-75
2023/01/13 05:33:21;;;;;;;41.55;6.43;;;;;;;7.73;100.00;99640.00;5112475;28;20057;-75
2023/01/13 05:35:47;;;;;;;48.90;6.82;;;;;;;7.69;100.00;99644.03;5112213;28;20031;-75
2023/01/13 05:38:14;;;;;;;45.60;6.28;;;;;;;7.76;100.00;99645.06;5112063;28;20027;-75
2023/01/13 05:43:25;;;;;;;49.22;6.55;;;;;;;7.69;100.00;99649.44;5112886;28;20031;-75
2023/01/13 05:46:06;;;;;;;38.30;6.00;;;;;;;7.76;100.00;99674.72;5112135;28;20495;-75
2023/01/13 05:48:37;;;;;;;40.85;6.57;;;;;;;7.84;100.00;99652.28;5111539;28;20023;-75
2023/01/13 05:51:05;;;;;;;36.70;5.25;;;;;;;7.81;100.00;99641.84;5111984;28;20024;-75
2023/01/13 05:53:31;;;;;;;56.15;7.32;;;;;;;7.94;100.00;99638.63;5128493;27;20035;-75
2023/01/13 05:55:57;;;;;;;33.47;5.40;;;;;;;7.89;100.00;99645.38;5118800;27;20041;-75
2023/01/13 05:58:24;;;;;;;44.47;7.65;;;;;;;7.82;100.00;99649.78;5111388;28;20098;-75
2023/01/13 06:00:49;;;;;;;46.80;8.32;;;;;;;7.75;100.00;99654.13;5103016;28;20023;-75
2023/01/13 06:03:15;;;;;;;42.03;6.20;;;;;;;7.93;100.00;99645.88;5109318;28;20057;-75
2023/01/13 06:05:41;;;;;;;34.92;5.57;;;;;;;7.98;100.00;99639.97;5110765;28;20043;-75
2023/01/13 06:08:07;;;;;;;38.28;7.75;;;;;;;7.87;100.00;99642.00;5111157;28;20058;-75
2023/01/13 06:10:33;;;;;;;53.22;7.10;;;;;;;7.92;100.00;99643.34;5112453;28;20046;-75
2023/01/13 06:12:58;;;;;;;50.20;8.18;;;;;;;7.84;100.00;99631.56;5111395;28;20110;-75
2023/01/13 06:15:24;;;;;;;44.92;6.68;;;;;;;7.81;100.00;99650.75;5110731;28;20115;-75
2023/01/13 06:17:50;;;;;;;43.63;6.50;;;;;;;7.88;100.00;99638.28;5111216;28;20043;-75
2023/01/13 06:20:16;;;;;;;46.85;6.78;;;;;;;7.81;100.00;99637.28;5112406;28;20384;-75
2023/01/13 06:22:45;;;;;;;40.83;6.75;;;;;;;7.81;100.00;99648.06;5113524;27;20047;-75
2023/01/13 06:25:29;;;;;;;50.83;7.03;;;;;;;7.81;100.00;99634.59;5116816;27;20476;-75
2023/01/13 06:27:59;;;;;;;52.42;6.18;;;;;;;7.86;100.00;99640.31;5103124;28;20015;-74
2023/01/13 06:30:28;;;;;;;53.53;7.55;;;;;;;7.92;100.00;99643.34;5114072;27;20110;-75
2023/01/13 06:32:57;;;;;;;42.30;6.13;;;;;;;7.96;100.00;99650.09;5113016;28;20332;-75
2023/01/13 06:35:28;;;;;;;58.95;7.95;;;;;;;7.79;100.00;99639.31;5112544;27;20030;-75
2023/01/13 06:37:56;;;;;;;44.90;6.97;;;;;;;7.86;100.00;99634.09;5102911;28;20034;-75
2023/01/13 06:40:22;;;;;;;49.63;8.18;;;;;;;7.73;100.00;99628.41;5110643;28;20069;-75
2023/01/13 06:45:33;;;;;;;45.22;7.15;;;;;;;7.75;100.00;99643.38;5112297;28;20020;-75
2023/01/13 06:47:59;;;;;;;43.00;5.97;;;;;;;7.79;100.00;99639.31;5110937;28;20024;-75
2023/01/13 06:50:26;;;;;;;48.10;7.00;;;;;;;7.86;100.00;99634.94;5110602;28;20016;-75
2023/01/13 06:52:51;;;;;;;39.78;5.63;;;;;;;7.80;100.00;99640.16;5120373;27;20026;-75
2023/01/13 06:55:16;;;;;;;44.08;6.15;;;;;;;7.84;100.00;99639.66;5115011;27;20027;-75
2023/01/13 06:57:53;;;;;;;55.70;7.55;;;;;;;7.85;100.00;99627.03;5110134;28;20027;-75
2023/01/13 07:00:19;;;;;;;44.78;6.68;;;;;;;7.87;100.00;99625.84;5111318;28;20122;-75
2023/01/13 07:02:44;;;;;;;37.38;6.15;;;;;;;7.96;100.00;99639.31;5110295;28;20027;-75
2023/01/13 07:05:10;;;;;;;44.75;6.40;;;;;;;7.89;100.00;99634.59;5109264;28;20422;-75
2023/01/13 07:07:35;;;;;;;50.90;6.47;;;;;;;8.03;100.00;99651.09;5110691;28;20035;-75
2023/01/13 07:10:01;;;;;;;45.47;6.43;;;;;;;7.95;100.00;99675.34;5111216;28;20020;-74
2023/01/13 07:12:26;;;;;;;37.65;6.93;;;;;;;7.96;100.00;99650.09;5109271;28;20012;-75
2023/01/13 07:17:46;;;;;;;46.13;7.47;;;;;;;7.97;100.00;99647.22;5099497;28;20082;-75
2023/01/13 07:20:12;;;;;;;59.05;8.10;;;;;;;8.00;100.00;99656.81;5110537;27;20601;-75
2023/01/13 07:22:37;;;;;;;51.40;6.82;;;;;;;7.98;100.00;99658.84;5110644;28;20110;-75
2023/01/13 07:25:03;;;;;;;29.75;5.45;;;;;;;8.05;100.00;99668.75;5110661;27;20123;-75
2023/01/13 07:27:28;;;;;;;51.33;6.97;;;;;;;8.09;100.00;99655.78;5109736;28;20027;-75
2023/01/13 07:29:53;;;;;;;45.00;7.20;;;;;;;8.14;100.00;99658.78;5109381;28;20027;-73
2023/01/13 07:32:18;;;;;;;46.15;6.53;;;;;;;8.01;100.00;99658.47;5110252;28;20392;-73
2023/01/13 07:34:44;;;;;;;45.72;6.28;;;;;;;8.08;100.00;99648.69;5111102;28;20031;-73
2023/01/13 07:37:09;;;;;;;38.00;6.80;;;;;;;8.26;100.00;99662.81;5110587;28;20106;-73
2023/01/13 07:39:34;;;;;;;46.33;6.72;;;;;;;8.21;100.00;99664.34;5110532;28;20031;-73
2023/01/13 07:44:44;;;;;;;43.13;6.32;;;;;;;8.20;100.00;99652.72;5111376;28;20126;-74
2023/01/13 07:47:10;;;;;;;46.00;6.68;;;;;;;8.18;100.00;99654.75;5109755;28;20103;-74
2023/01/13 07:49:35;;;;;;;52.97;6.35;;;;;;;8.05;100.00;99643.66;5111168;28;20023;-73
2023/01/13 07:52:01;;;;;;;46.95;6.95;;;;;;;8.06;100.00;99645.34;5111533;27;20034;-73
2023/01/13 07:54:26;;;;;;;52.40;8.40;;;;;;;8.00;100.00;99646.88;5118652;27;20019;-74
2023/01/13 07:56:55;;;;;;;49.25;6.38;;;;;;;8.07;100.00;99652.41;5110505;28;20506;-74
2023/01/13 07:59:20;;;;;;;50.95;7.80;;;;;;;7.92;100.00;99659.53;5110355;28;20369;-73
2023/01/13 08:01:46;;;;;;;40.25;7.28;;;;;;;7.92;100.00;99654.13;5109589;28;20043;-74
2023/01/13 08:04:11;;;;;;;57.33;7.68;;;;;;;7.96;100.00;99650.09;5092331;27;20026;-74
2023/01/13 08:06:38;;;;;;;45.75;7.55;;;;;;;7.95;100.00;99653.78;5082362;27;20052;-73
2023/01/13 08:09:03;;;;;;;46.20;7.80;;;;;;;7.90;100.00;99643.53;5082130;27;20484;-74
2023/01/13 08:11:30;;;;;;;49.92;7.22;;;;;;;7.96;100.00;99650.09;5095044;27;20056;-73
2023/01/13 08:13:56;;;;;;;44.67;6.63;;;;;;;8.00;100.00;99635.25;5100669;27;20045;-72
2023/01/13 08:16:22;;;;;;;51.67;7.80;;;;;;;8.02;100.00;99630.50;5102499;27;20036;-74
2023/01/13 08:18:47;;;;;;;47.10;7.05;;;;;;;8.01;100.00;99626.97;5108191;27;20461;-74
2023/01/13 08:21:13;;;;;;;40.42;6.65;;;;;;;8.06;100.00;99634.56;5101300;27;20023;-72
2023/01/13 08:23:40;;;;;;;41.75;7.18;;;;;;;8.01;100.00;99634.22;5113425;28;20027;-74
2023/01/13 08:26:09;;;;;;;52.25;7.18;;;;;;;8.08;100.00;99624.44;5106580;28;20031;-74
2023/01/13 08:28:35;;;;;;;32.85;5.88;;;;;;;8.11;100.00;99648.38;5109712;28;20480;-74
2023/01/13 08:31:02;;;;;;;55.08;7.20;;;;;;;8.19;100.00;99624.06;5111699;28;20030;-74
2023/01/13 08:33:28;;;;;;;65.32;8.15;;;;;;;8.13;100.00;99652.56;5108776;28;20050;-73
2023/01/13 08:35:55;;;;;;;49.88;6.95;;;;;;;8.11;100.00;99642.97;5104556;28;20015;-73
2023/01/13 08:38:21;;;;;;;39.88;5.88;;;;;;;8.22;100.00;99639.91;5109175;28;20019;-72
2023/01/13 08:40:46;;;;;;;42.15;6.30;;;;;;;8.31;100.00;99619.16;5109558;28;20131;-74
2023/01/13 08:43:11;;;;;;;45.75;8.55;;;;;;;8.19;100.00;99618.69;5108968;28;20598;-73
2023/01/13 08:45:37;;;;;;;45.63;7.40;;;;;;;8.28;100.00;99639.22;5096874;28;20066;-76
2023/01/13 08:48:03;;;;;;;46.33;6.88;;;;;;;8.47;100.00;99647.94;5100630;28;20113;-74
2023/01/13 08:50:28;;;;;;;35.97;5.13;;;;;;;8.37;100.00;99638.19;5101716;28;20103;-74
2023/01/13 08:52:54;;;;;;;35.95;5.80;;;;;;;8.28;100.00;99639.22;5097262;28;20028;-74
2023/01/13 08:55:19;;;;;;;41.60;5.88;;;;;;;8.38;100.00;99653.38;5102313;28;20024;-74
2023/01/13 08:57:44;;;;;;;47.05;7.55;;;;;;;8.36;100.00;99668.88;5110781;28;20072;-72
2023/01/13 09:00:10;;;;;;;43.45;6.32;;;;;;;8.47;100.00;99647.94;5108428;28;20047;-72
2023/01/13 09:02:37;;;;;;;38.95;5.82;;;;;;;8.34;100.00;99638.50;5104040;27;20031;-74
2023/01/13 09:05:06;;;;;;;48.83;7.80;;;;;;;8.37;100.00;99649.00;5104215;27;20027;-73
2023/01/13 09:07:32;;;;;;;35.40;6.90;;;;;;;8.31;100.00;99660.44;5119500;27;20031;-74
2023/01/13 09:09:58;;;;;;;31.85;7.53;;;;;;;8.32;100.00;99645.94;5097747;28;20027;-73
2023/01/13 09:15:08;;;;;;;40.05;5.30;;;;;;;8.33;100.00;99634.13;5115756;27;20026;-74
2023/01/13 09:17:34;;;;;;;38.88;6.05;;;;;;;8.36;100.00;99635.69;5107629;27;20031;-74
2023/01/13 09:19:59;;;;;;;42.78;7.55;;;;;;;8.29;100.00;99640.91;5100098;27;20034;-71
2023/01/13 09:22:26;;;;;;;42.05;6.32;;;;;;;8.51;100.00;99633.09;5103968;27;20036;-73
2023/01/13 09:24:52;;;;;;;36.85;5.82;;;;;;;8.39;100.00;99673.06;5102792;27;20027;-74
2023/01/13 09:27:18;;;;;;;39.90;4.88;;;;;;;8.42;100.00;99645.78;5114118;27;20032;-72
2023/01/13 09:29:43;;;;;;;33.85;6.15;;;;;;;8.43;100.00;99640.19;5112877;27;20023;-72
2023/01/13 09:32:11;;;;;;;35.97;5.55;;;;;;;8.49;100.00;99667.50;5101180;27;20019;-72
2023/01/13 09:37:20;;;;;;;33.67;5.78;;;;;;;8.59;98.94;99657.31;5114052;27;20015;-72
2023/01/13 09:39:45;;;;;;;32.58;5.55;;;;;;;8.67;98.59;99654.59;5105876;27;20031;-72
2023/01/13 09:45:15;;;;;;;32.80;4.88;;;;;;;8.69;99.80;99663.38;5108160;27;20108;-71
2023/01/13 09:48:01;;;;;;;34.35;5.53;;;;;;;8.55;97.84;99656.84;5110690;27;20037;-72
2023/01/13 09:50:51;;;;;;;32.28;4.82;;;;;;;8.60;99.06;99664.41;5096435;27;20126;-71
2023/01/13 09:53:27;;;;;;;27.63;4.43;;;;;;;8.54;98.85;99659.69;5101112;27;20051;-71
2023/01/13 09:55:53;;;;;;;29.13;4.75;;;;;;;8.45;99.18;99649.97;5109142;27;20146;-72
2023/01/13 09:58:19;;;;;;;30.48;5.10;;;;;;;8.46;99.09;99640.84;5108689;27;20042;-72
2023/01/13 10:00:54;;;;;;;30.10;4.55;;;;;;;8.43;99.01;99664.47;5109258;27;20027;-72
2023/01/13 10:03:29;;;;;;;36.47;4.85;;;;;;;8.50;100.00;99637.66;5108403;27;20020;-73
2023/01/13 10:06:03;;;;;;;23.50;4.88;;;;;;;8.48;98.79;99644.25;5099292;27;20015;-73
2023/01/13 10:08:36;;;;;;;22.63;4.82;;;;;;;8.46;98.83;99643.56;5115144;27;20022;-71
2023/01/13 10:13:13;;;;;;;47.58;4.90;;;;;;;8.39;98.99;99656.91;5112497;27;20054;-74
2023/01/13 10:14:02;;;;;;;26.40;4.90;;;;;;;8.41;99.52;99639.53;5107164;27;20094;-74
2023/01/13 10:16:45;;;;;;;35.53;4.18;;;;;;;8.43;98.75;99653.69;5101256;27;20023;-73
2023/01/13 10:19:24;;;;;;;29.38;4.55;;;;;;;8.40;99.20;99648.63;5111064;27;20023;-74
2023/01/13 10:22:07;;;;;;;21.55;3.78;;;;;;;8.51;97.65;99654.66;5104216;27;20087;-74
2023/01/13 10:24:45;;;;;;;29.13;4.93;;;;;;;8.52;97.93;99634.78;5105139;27;20134;-73
2023/01/13 10:27:35;;;;;;;22.02;3.78;;;;;;;8.66;97.46;99632.16;5102497;27;20027;-74
2023/01/13 10:30:38;;;;;;;38.67;4.55;;;;;;;8.52;98.16;99634.78;5114630;27;20020;-73
2023/01/13 10:33:27;;;;;;;17.30;3.30;;;;;;;8.50;97.86;99653.00;5101538;27;20042;-73
2023/01/13 10:36:01;;;;;;;26.48;3.88;;;;;;;8.52;98.15;99645.56;5104959;27;20019;-73
2023/01/13 10:38:38;;;;;;;22.33;4.20;;;;;;;8.57;97.67;99627.00;5106976;27;20019;-72
2023/01/13 10:41:19;;;;;;;28.92;5.60;;;;;;;8.52;98.07;99629.38;5100269;27;20016;-72
2023/01/13 10:43:57;;;;;;;24.83;3.63;;;;;;;8.62;97.37;99635.41;5103728;27;20119;-73
2023/01/13 10:46:22;;;;;;;29.10;4.30;;;;;;;8.55;97.68;99634.44;5104131;27;20030;-72
2023/01/13 10:48:58;;;;;;;16.60;4.18;;;;;;;8.61;98.16;99639.13;5110337;27;20086;-73
2023/01/13 10:51:29;;;;;;;28.73;3.95;;;;;;;8.59;97.86;99631.19;5118371;27;20155;-73
2023/01/13 10:54:01;;;;;;;20.00;3.15;;;;;;;8.66;98.02;99621.38;5106027;27;20027;-74
2023/01/13 10:56:30;;;;;;;15.48;3.08;;;;;;;8.72;98.41;99636.00;5104354;27;20024;-73
2023/01/13 10:59:14;;;;;;;25.15;4.90;;;;;;;8.66;98.95;99642.94;5082980;27;20038;-73
2023/01/13 11:01:56;;;;;;;24.40;3.75;;;;;;;8.58;99.33;99650.25;5103480;27;20500;-71
2023/01/13 11:04:31;;;;;;;37.75;5.75;;;;;;;8.26;100.00;99657.41;5104412;27;20027;-71
2023/01/13 11:06:58;;;;;;;19.42;3.70;;;;;;;8.13;100.00;99667.91;5103563;27;20092;-71
2023/01/13 11:09:25;;;;;;;24.83;5.07;;;;;;;7.75;100.00;99697.25;5108634;27;20023;-72
2023/01/13 11:11:54;;;;;;;24.35;4.45;;;;;;;7.58;100.00;99657.88;5108533;27;20034;-73
2023/01/13 11:14:40;;;;;;;30.25;4.97;;;;;;;7.51;100.00;99667.63;5098837;28;20017;-72
2023/01/13 11:17:30;;;;;;;24.75;5.13;;;;;;;7.37;100.00;99660.22;5099990;27;20110;-75
2023/01/13 11:19:58;;;;;;;35.22;5.95;;;;;;;7.22;100.00;99671.63;5095571;27;20112;-75
2023/01/13 11:22:31;;;;;;;45.53;5.13;;;;;;;7.32;100.00;99658.88;5101302;27;20031;-74
2023/01/13 11:25:04;;;;;;;23.17;4.85;;;;;;;7.33;100.00;99665.94;5102784;27;20117;-74
2023/01/13 11:27:41;;;;;;;26.73;4.45;;;;;;;7.46;100.00;99667.28;5098956;27;20028;-72
2023/01/13 11:30:41;;;;;;;17.95;4.07;;;;;;;7.49;100.00;99685.78;5102133;27;20065;-71
2023/01/13 11:33:13;;;;;;;28.33;4.75;;;;;;;7.58;100.00;99682.13;5110591;27;20034;-72
2023/01/13 11:35:56;;;;;;;21.02;3.83;;;;;;;7.70;100.00;99661.91;5107735;27;20031;-71
2023/01/13 11:38:30;;;;;;;27.55;5.40;;;;;;;7.69;100.00;99686.31;5125859;27;20027;-72
2023/01/13 11:41:06;;;;;;;30.83;4.13;;;;;;;7.71;100.00;99674.38;5127278;27;20023;-72
2023/01/13 11:43:38;;;;;;;26.25;3.72;;;;;;;7.85;100.00;99681.75;5105326;27;20046;-73
2023/01/13 11:46:04;;;;;;;;;;;;;;;7.86;100.00;99683.44;5105736;27;20030;-72
2023/01/13 11:48:34;;;;;;;14.40;3.05;;;;;;;7.87;100.00;99695.91;5108142;27;19911;-73
2023/01/13 11:51:16;;;;;;;28.42;3.95;;;;;;;7.89;100.00;99664.25;5133337;27;20037;-73
2023/01/13 11:53:51;;;;;;;;;;;;;;;7.88;100.00;99678.72;5125315;27;20116;-73
2023/01/13 11:56:23;;;;;;;23.92;4.20;;;;;;;7.89;100.00;99650.78;5107416;27;19915;-73
2023/01/13 11:59:43;;;;;;;22.48;3.92;;;;;;;8.04;100.00;99652.78;5106417;27;20388;-73
2023/01/13 12:02:31;;;;;;;32.88;4.80;;;;;;;7.99;100.00;99660.53;5103547;27;20472;-73
2023/01/13 12:05:22;;;;;;;12.90;2.90;;;;;;;7.96;100.00;99677.88;5122478;27;20400;-73
2023/01/13 12:08:08;;;;;;;12.88;2.92;;;;;;;7.96;100.00;99682.44;5104986;27;20035;-73
2023/01/13 12:10:52;;;;;;;19.83;4.70;;;;;;;7.95;100.00;99672.63;5109894;27;20027;-73
2023/01/13 12:13:30;;;;;;;21.10;3.40;;;;;;;7.72;100.00;99659.88;5123983;27;20034;-73
2023/01/13 12:16:24;;;;;;;28.50;3.65;;;;;;;7.65;100.00;99669.66;5122769;27;20023;-73
2023/01/13 12:19:14;;;;;;;18.88;3.42;;;;;;;7.65;100.00;99664.25;5111586;27;20184;-73
2023/01/13 12:21:45;;;;;;;26.30;3.85;;;;;;;7.71;100.00;99651.97;5131190;27;20118;-73
2023/01/13 12:24:15;;;;;;;24.05;3.67;;;;;;;7.72;100.00;99654.50;5111855;27;20014;-73
2023/01/13 12:26:57;;;;;;;22.05;3.50;;;;;;;7.68;100.00;99653.13;5110933;28;20019;-73
2023/01/13 12:29:30;;;;;;;26.77;4.22;;;;;;;7.67;100.00;99646.06;5112529;28;20007;-73